This is the latest recevied weather packets stored in our database for station/object K0WXC-1. If no packets are shown the sender has not sent any weather packets the latest 10 day(s).
| Time | Temp. | Humidity | Pressure | Rain* | Wind** | Luminosity | Snow |
|---|---|---|---|---|---|---|---|
| 1777074388 | 19.44° C | 47% | 997.2 hPa | 0 mm | 1.34 m/s, 48° | - | - |
| 1777074328 | 19.44° C | 45% | 996.9 hPa | 0 mm | 0.45 m/s, 117° | - | - |
| 1777074268 | 19.44° C | 45% | 996.9 hPa | 0 mm | 0.45 m/s, 117° | - | - |
| 1777074208 | 19.44° C | 45% | 996.9 hPa | 0 mm | 0.45 m/s, 117° | - | - |
| 1777074148 | 19.44° C | 45% | 996.9 hPa | 0 mm | 0.45 m/s, 117° | - | - |
| 1777074088 | 19.44° C | 45% | 996.9 hPa | 0 mm | 0.45 m/s, 117° | - | - |
| 1777074028 | 20° C | 45% | 997.1 hPa | 0 mm | 1.34 m/s, 344° | - | - |
| 1777073968 | 20° C | 45% | 997.1 hPa | 0 mm | 1.34 m/s, 344° | - | - |
| 1777073908 | 20° C | 45% | 997.1 hPa | 0 mm | 1.34 m/s, 344° | - | - |
| 1777073848 | 20° C | 45% | 997.1 hPa | 0 mm | 1.34 m/s, 344° | - | - |
| 1777073788 | 20° C | 45% | 997.1 hPa | 0 mm | 1.34 m/s, 344° | - | - |
| 1777073728 | 20° C | 44% | 997.1 hPa | 0 mm | 1.79 m/s, 319° | - | - |
| 1777073668 | 20° C | 44% | 997.1 hPa | 0 mm | 1.79 m/s, 319° | - | - |
| 1777073608 | 20° C | 44% | 997.1 hPa | 0 mm | 1.79 m/s, 319° | - | - |
| 1777073548 | 20° C | 44% | 997.1 hPa | 0 mm | 1.79 m/s, 319° | - | - |
| 1777073488 | 20° C | 44% | 997.1 hPa | 0 mm | 1.79 m/s, 319° | - | - |
| 1777073428 | 20° C | 47% | 997 hPa | 0 mm | 0.45 m/s, 154° | - | - |
| 1777073368 | 20° C | 47% | 997 hPa | 0 mm | 0.45 m/s, 154° | - | - |
| 1777073308 | 20° C | 47% | 997 hPa | 0 mm | 0.45 m/s, 154° | - | - |
| 1777073248 | 20° C | 47% | 997 hPa | 0 mm | 0.45 m/s, 154° | - | - |
| 1777073188 | 20° C | 47% | 997 hPa | 0 mm | 0.45 m/s, 154° | - | - |
| 1777073128 | 20° C | 43% | 997 hPa | 0 mm | 0.89 m/s, 312° | - | - |
| 1777073068 | 20° C | 43% | 997 hPa | 0 mm | 0.89 m/s, 312° | - | - |
| 1777073008 | 20° C | 43% | 997 hPa | 0 mm | 0.89 m/s, 312° | - | - |
| 1777072948 | 20° C | 43% | 997 hPa | 0 mm | 0.89 m/s, 312° | - | - |
* Rain latest hour (hover to see other rain measurements)
** Current wind speed in m/s (hover to see current wind gust speed)